createdAt,value
2023-05-01T00:00:52.510Z,98698.25
2023-05-01T00:03:19.478Z,98700.31
2023-05-01T00:05:46.246Z,98693.78
2023-05-01T00:08:12.626Z,98704.50
2023-05-01T00:10:39.652Z,98693.06
2023-05-01T00:13:06.310Z,98683.53
2023-05-01T00:15:33.643Z,98693.25
2023-05-01T00:18:00.388Z,98689.72
2023-05-01T00:20:29.927Z,98686.06
2023-05-01T00:22:56.378Z,98683.25
2023-05-01T00:25:22.723Z,98683.78
2023-05-01T00:27:49.135Z,98681.56
2023-05-01T00:30:15.656Z,98674.97
2023-05-01T00:32:42.045Z,98673.59
2023-05-01T00:35:09.026Z,98671.53
2023-05-01T00:37:35.611Z,98669.66
2023-05-01T00:40:01.999Z,98668.16
2023-05-01T00:42:28.360Z,98666.31
2023-05-01T00:44:54.732Z,98663.72
2023-05-01T00:47:21.454Z,98666.47
2023-05-01T00:49:49.512Z,98668.09
2023-05-01T00:52:16.395Z,98669.22
2023-05-01T00:54:42.734Z,98673.69
2023-05-01T00:57:09.524Z,98667.63
2023-05-01T00:59:36.313Z,98666.97
2023-05-01T01:02:03.076Z,98665.31
2023-05-01T01:04:32.195Z,98666.50
2023-05-01T01:07:09.614Z,98657.16
2023-05-01T01:09:42.399Z,98663.34
2023-05-01T01:12:24.717Z,98656.25
2023-05-01T01:15:02.438Z,98656.91
2023-05-01T01:17:38.577Z,98652.06
2023-05-01T01:20:19.189Z,98653.28
2023-05-01T01:22:51.499Z,98649.53
2023-05-01T01:25:55.471Z,98647.38
2023-05-01T01:28:40.767Z,98642.16
2023-05-01T01:31:26.496Z,98645.63
2023-05-01T01:33:59.129Z,98649.16
2023-05-01T01:36:55.983Z,98645.78
2023-05-01T01:39:40.787Z,98640.19
2023-05-01T01:42:12.708Z,98640.47
2023-05-01T01:44:43.277Z,98634.88
2023-05-01T01:47:12.651Z,98626.41
2023-05-01T01:49:44.382Z,98633.38
2023-05-01T01:52:14.206Z,98629.38
2023-05-01T01:54:44.894Z,98629.38
2023-05-01T01:57:14.380Z,98628.91
2023-05-01T01:59:42.137Z,98626.78
2023-05-01T02:02:09.169Z,98623.78
2023-05-01T02:04:36.315Z,98622.19
2023-05-01T02:07:04.186Z,98617.16
2023-05-01T02:09:31.286Z,98619.88
2023-05-01T02:12:00.216Z,98618.75
2023-05-01T02:14:27.534Z,98612.59
2023-05-01T02:16:55.703Z,98614.81
2023-05-01T02:19:22.435Z,98606.03
2023-05-01T02:21:50.220Z,98610.41
2023-05-01T02:24:18.248Z,98609.59
2023-05-01T02:26:56.582Z,98608.13
2023-05-01T02:29:22.925Z,98605.03
2023-05-01T02:31:49.320Z,98602.91
2023-05-01T02:34:15.738Z,98606.66
2023-05-01T02:36:42.731Z,98601.78
2023-05-01T02:39:09.231Z,98593.22
2023-05-01T02:41:37.694Z,98598.03
2023-05-01T02:44:05.776Z,98598.63
2023-05-01T02:46:36.056Z,98594.50
2023-05-01T02:49:03.883Z,98594.31
2023-05-01T02:51:33.886Z,98603.63
2023-05-01T02:54:00.414Z,98596.44
2023-05-01T02:56:28.030Z,98598.59
2023-05-01T02:58:54.362Z,98592.28
2023-05-01T03:01:20.868Z,98583.91
2023-05-01T03:03:47.379Z,98580.91
2023-05-01T03:06:16.451Z,98581.69
2023-05-01T03:08:43.190Z,98575.09
2023-05-01T03:11:09.548Z,98578.94
2023-05-01T03:13:35.997Z,98571.34
2023-05-01T03:16:04.437Z,98586.56
2023-05-01T03:18:30.977Z,98580.78
2023-05-01T03:20:57.520Z,98579.25
2023-05-01T03:23:23.926Z,98575.22
2023-05-01T03:25:50.908Z,98570.50
2023-05-01T03:28:17.544Z,98565.84
2023-05-01T03:30:44.646Z,98569.28
2023-05-01T03:33:11.182Z,98569.09
2023-05-01T03:35:37.786Z,98573.88
2023-05-01T03:38:04.257Z,98568.38
2023-05-01T03:40:30.657Z,98559.69
2023-05-01T03:42:56.997Z,98568.75
2023-05-01T03:45:23.576Z,98567.31
2023-05-01T03:47:50.194Z,98567.84
2023-05-01T03:50:16.709Z,98564.59
2023-05-01T03:52:43.062Z,98567.66
2023-05-01T03:55:09.635Z,98567.81
2023-05-01T03:57:37.026Z,98565.69
2023-05-01T04:00:05.501Z,98566.53
2023-05-01T04:02:32.003Z,98563.03
2023-05-01T04:04:58.523Z,98558.56
2023-05-01T04:07:24.895Z,98558.63
2023-05-01T04:09:51.252Z,98558.78
2023-05-01T04:12:17.729Z,98561.06
2023-05-01T04:14:44.696Z,98549.47
2023-05-01T04:17:11.534Z,98551.72
2023-05-01T04:19:37.918Z,98544.06
2023-05-01T04:22:05.535Z,98552.75
2023-05-01T04:24:32.302Z,98554.75
2023-05-01T04:26:58.669Z,98559.16
2023-05-01T04:29:25.086Z,98561.72
2023-05-01T04:31:51.473Z,98558.53
2023-05-01T04:34:17.880Z,98549.66
2023-05-01T04:36:44.346Z,98556.63
2023-05-01T04:39:10.761Z,98553.41
2023-05-01T04:41:37.119Z,98554.88
2023-05-01T04:44:03.488Z,98548.41
2023-05-01T04:46:29.907Z,98546.03
2023-05-01T04:48:56.283Z,98535.97
2023-05-01T04:51:22.676Z,98540.34
2023-05-01T04:53:49.114Z,98535.03
2023-05-01T04:56:15.705Z,98534.78
2023-05-01T04:58:42.236Z,98527.19
2023-05-01T05:01:08.639Z,98532.06
2023-05-01T05:03:35.459Z,98525.94
2023-05-01T05:06:02.003Z,98527.94
2023-05-01T05:08:28.385Z,98527.63
2023-05-01T05:10:59.857Z,98529.56
2023-05-01T05:13:27.002Z,98529.56
2023-05-01T05:15:53.537Z,98521.09
2023-05-01T05:18:20.018Z,98529.19
2023-05-01T05:20:46.660Z,98518.25
2023-05-01T05:23:13.134Z,98524.06
2023-05-01T05:25:39.476Z,98520.63
2023-05-01T05:28:05.806Z,98524.44
2023-05-01T05:30:32.190Z,98521.94
2023-05-01T05:32:58.547Z,98524.22
2023-05-01T05:35:25.037Z,98526.00
2023-05-01T05:37:51.530Z,98519.84
2023-05-01T05:40:19.270Z,98517.19
2023-05-01T05:42:45.619Z,98521.88
2023-05-01T05:45:12.214Z,98520.56
2023-05-01T05:47:38.735Z,98514.91
2023-05-01T05:50:07.362Z,98519.59
2023-05-01T05:52:33.754Z,98514.25
2023-05-01T05:55:00.336Z,98513.69
2023-05-01T05:57:26.680Z,98517.75
2023-05-01T05:59:53.069Z,98519.16
2023-05-01T06:02:20.248Z,98511.28
2023-05-01T06:04:46.656Z,98508.09
2023-05-01T06:07:13.049Z,98512.69
2023-05-01T06:09:39.450Z,98509.19
2023-05-01T06:12:05.908Z,98511.72
2023-05-01T06:14:32.483Z,98507.72
2023-05-01T06:16:58.858Z,98505.41
2023-05-01T06:19:25.886Z,98505.88
2023-05-01T06:21:52.332Z,98501.72
2023-05-01T06:24:18.717Z,98506.50
2023-05-01T06:26:45.129Z,98506.00
2023-05-01T06:29:11.571Z,98507.94
2023-05-01T06:31:38.048Z,98496.97
2023-05-01T06:34:04.565Z,98504.78
2023-05-01T06:36:31.581Z,98500.13
2023-05-01T06:38:58.120Z,98502.78
2023-05-01T06:41:25.854Z,98496.28
2023-05-01T06:43:52.589Z,98498.69
2023-05-01T06:46:19.023Z,98493.13
2023-05-01T06:48:45.687Z,98498.66
2023-05-01T06:51:15.017Z,98488.63
2023-05-01T06:53:41.685Z,98485.78
2023-05-01T06:56:08.491Z,98488.75
2023-05-01T06:58:35.148Z,98483.84
2023-05-01T07:01:01.832Z,98476.22
2023-05-01T07:03:28.353Z,98484.28
2023-05-01T07:05:55.390Z,98490.03
2023-05-01T07:08:21.949Z,98487.41
2023-05-01T07:10:50.048Z,98490.16
2023-05-01T07:13:16.994Z,98478.03
2023-05-01T07:15:43.348Z,98465.84
2023-05-01T07:18:09.707Z,98463.97
2023-05-01T07:20:36.088Z,98470.59
2023-05-01T07:23:03.488Z,98459.84
2023-05-01T07:25:31.018Z,98464.09
2023-05-01T07:27:57.379Z,98445.72
2023-05-01T07:30:23.875Z,98450.59
2023-05-01T07:32:50.566Z,98443.84
2023-05-01T07:35:16.998Z,98446.63
2023-05-01T07:37:43.328Z,98447.00
2023-05-01T07:40:10.217Z,98440.94
2023-05-01T07:42:36.557Z,98436.78
2023-05-01T07:45:03.513Z,98439.00
2023-05-01T07:47:30.117Z,98439.31
2023-05-01T07:49:57.060Z,98443.81
2023-05-01T07:52:23.665Z,98435.22
2023-05-01T07:54:51.174Z,98435.66
2023-05-01T07:57:17.518Z,98429.44
2023-05-01T07:59:43.983Z,98428.75
2023-05-01T08:02:10.374Z,98427.53
2023-05-01T08:04:36.820Z,98421.84
2023-05-01T08:07:03.197Z,98425.16
2023-05-01T08:09:29.584Z,98427.97
2023-05-01T08:11:55.958Z,98426.94
2023-05-01T08:14:22.432Z,98411.16
2023-05-01T08:16:54.229Z,98421.38
2023-05-01T08:19:21.013Z,98418.91
2023-05-01T08:21:47.346Z,98425.69
2023-05-01T08:24:13.720Z,98423.19
2023-05-01T08:26:40.114Z,98431.50
2023-05-01T08:29:06.554Z,98432.00
2023-05-01T08:31:32.980Z,98427.28
2023-05-01T08:33:59.371Z,98428.03
2023-05-01T08:36:26.600Z,98425.44
2023-05-01T08:38:52.960Z,98428.00
2023-05-01T08:41:21.898Z,98436.69
2023-05-01T08:43:48.890Z,98433.47
2023-05-01T08:46:22.726Z,98425.75
2023-05-01T08:48:50.654Z,98420.31
2023-05-01T08:51:21.211Z,98416.69
2023-05-01T08:53:50.693Z,98412.63
2023-05-01T08:56:18.149Z,98419.88
2023-05-01T08:58:46.237Z,98415.63
2023-05-01T09:01:15.858Z,98420.31
2023-05-01T09:03:44.558Z,98409.84
2023-05-01T09:06:12.358Z,98415.44
2023-05-01T09:08:38.934Z,98416.13
2023-05-01T09:11:06.408Z,98414.06
2023-05-01T09:13:33.195Z,98409.25
2023-05-01T09:16:00.799Z,98410.41
2023-05-01T09:18:27.411Z,98405.31
2023-05-01T09:20:54.980Z,98407.47
2023-05-01T09:23:21.340Z,98403.44
2023-05-01T09:25:49.612Z,98406.31
2023-05-01T09:28:17.956Z,98398.34
2023-05-01T09:30:44.592Z,98398.34
2023-05-01T09:33:16.733Z,98395.78
2023-05-01T09:35:54.473Z,98401.59
2023-05-01T09:38:25.655Z,98392.44
2023-05-01T09:40:54.087Z,98380.16
2023-05-01T09:43:27.993Z,98388.00
2023-05-01T09:46:05.385Z,98378.78
2023-05-01T09:48:34.987Z,98366.72
2023-05-01T09:51:20.660Z,98371.09
2023-05-01T09:53:47.031Z,98357.50
2023-05-01T09:56:14.626Z,98365.81
2023-05-01T09:58:41.027Z,98367.78
2023-05-01T10:01:07.460Z,98361.34
2023-05-01T10:03:37.596Z,98364.19
2023-05-01T10:06:04.419Z,98347.44
2023-05-01T10:08:50.621Z,98349.03
2023-05-01T10:11:17.112Z,98343.91
2023-05-01T10:13:43.569Z,98335.53
2023-05-01T10:16:29.718Z,98332.41
2023-05-01T10:19:00.334Z,98330.06
2023-05-01T10:21:28.347Z,98329.44
2023-05-01T10:23:57.590Z,98317.66
2023-05-01T10:26:26.240Z,98313.03
2023-05-01T10:28:52.891Z,98310.59
2023-05-01T10:31:19.272Z,98312.56
2023-05-01T10:33:46.955Z,98313.97
2023-05-01T10:36:19.435Z,98295.53
2023-05-01T10:38:48.444Z,98296.88
2023-05-01T10:41:19.051Z,98289.16
2023-05-01T10:43:45.476Z,98289.28
2023-05-01T10:46:20.984Z,98293.28
2023-05-01T10:48:47.364Z,98281.63
2023-05-01T10:51:27.189Z,98278.72
2023-05-01T10:54:22.316Z,98274.31
2023-05-01T10:56:48.772Z,98267.69
2023-05-01T10:59:15.143Z,98267.78
2023-05-01T11:01:47.546Z,98276.91
2023-05-01T11:04:22.804Z,98256.53
2023-05-01T11:06:58.343Z,98254.31
2023-05-01T11:09:49.101Z,98247.44
2023-05-01T11:12:51.676Z,98253.22
2023-05-01T11:15:28.900Z,98243.59
2023-05-01T11:17:55.928Z,98251.53
2023-05-01T11:20:25.509Z,98245.84
2023-05-01T11:22:56.438Z,98243.44
2023-05-01T11:25:24.600Z,98241.75
2023-05-01T11:27:53.341Z,98237.72
2023-05-01T11:30:20.344Z,98229.72
2023-05-01T11:32:48.937Z,98226.19
2023-05-01T11:35:18.215Z,98222.63
2023-05-01T11:37:45.312Z,98218.06
2023-05-01T11:40:28.876Z,98209.09
2023-05-01T11:43:09.159Z,98190.69
2023-05-01T11:45:37.197Z,98196.63
2023-05-01T11:48:05.070Z,98190.28
2023-05-01T11:50:37.069Z,98192.50
2023-05-01T11:53:11.805Z,98181.00
2023-05-01T11:55:41.067Z,98186.28
2023-05-01T11:58:07.900Z,98188.69
2023-05-01T12:00:38.161Z,98175.81
2023-05-01T12:03:07.197Z,98177.81
2023-05-01T12:05:37.234Z,98174.44
2023-05-01T12:08:09.897Z,98170.78
2023-05-01T12:10:37.504Z,98162.75
2023-05-01T12:13:05.246Z,98160.53
2023-05-01T12:15:35.208Z,98152.59
2023-05-01T12:18:01.855Z,98144.94
2023-05-01T12:20:54.273Z,98140.41
2023-05-01T12:23:39.056Z,98136.59
2023-05-01T12:26:25.703Z,98135.16
2023-05-01T12:28:57.088Z,98110.25
2023-05-01T12:31:24.885Z,98115.25
2023-05-01T12:33:58.747Z,98112.78
2023-05-01T12:36:28.537Z,98110.19
2023-05-01T12:39:03.582Z,98102.13
2023-05-01T12:41:45.998Z,98088.47
2023-05-01T12:44:26.148Z,98090.59
2023-05-01T12:46:58.365Z,98074.97
2023-05-01T12:49:25.832Z,98071.50
2023-05-01T12:51:54.577Z,98070.06
2023-05-01T12:54:27.733Z,98068.34
2023-05-01T12:57:04.473Z,98073.34
2023-05-01T12:59:31.257Z,98065.78
2023-05-01T13:02:02.807Z,98070.44
2023-05-01T13:04:29.707Z,98070.25
2023-05-01T13:06:57.011Z,98067.78
2023-05-01T13:09:23.793Z,98072.94
2023-05-01T13:12:02.199Z,98053.88
2023-05-01T13:14:30.758Z,98058.03
2023-05-01T13:16:57.253Z,98061.16
2023-05-01T13:19:28.700Z,98049.56
2023-05-01T13:21:57.552Z,98047.06
2023-05-01T13:24:24.989Z,98041.31
2023-05-01T13:27:03.602Z,98035.03
2023-05-01T13:29:32.331Z,98037.00
2023-05-01T13:31:58.793Z,98031.47
2023-05-01T13:34:31.573Z,98041.34
2023-05-01T13:36:58.547Z,98031.66
2023-05-01T13:39:25.731Z,98042.38
2023-05-01T13:41:53.115Z,98041.34
2023-05-01T13:44:20.929Z,98036.25
2023-05-01T13:46:48.363Z,98039.50
2023-05-01T13:49:17.677Z,98030.91
2023-05-01T13:51:45.016Z,98031.09
2023-05-01T13:54:11.523Z,98033.66
2023-05-01T13:56:39.846Z,98038.66
2023-05-01T13:59:07.654Z,98037.13
2023-05-01T14:01:46.713Z,98035.25
2023-05-01T14:04:18.228Z,98030.13
2023-05-01T14:06:46.923Z,98022.56
2023-05-01T14:09:17.333Z,98024.00
2023-05-01T14:11:46.680Z,98013.75
2023-05-01T14:14:17.318Z,98024.63
2023-05-01T14:16:50.976Z,98021.56
2023-05-01T14:19:18.300Z,98022.78
2023-05-01T14:21:44.938Z,98019.63
2023-05-01T14:24:11.389Z,98010.44
2023-05-01T14:26:43.306Z,98003.22
2023-05-01T14:29:25.963Z,98004.25
2023-05-01T14:31:52.898Z,97999.81
2023-05-01T14:34:20.380Z,97999.47
2023-05-01T14:36:47.329Z,97994.88
2023-05-01T14:39:15.779Z,97995.69
2023-05-01T14:41:42.731Z,97985.72
2023-05-01T14:44:15.620Z,97975.31
2023-05-01T14:46:47.335Z,97987.97
2023-05-01T14:49:20.136Z,97999.41
2023-05-01T14:51:46.758Z,97989.53
2023-05-01T14:54:14.541Z,97988.66
2023-05-01T14:56:42.873Z,97990.03
2023-05-01T14:59:09.232Z,97994.06
2023-05-01T15:01:35.768Z,97990.50
2023-05-01T15:04:03.804Z,97988.84
2023-05-01T15:06:30.615Z,97993.09
2023-05-01T15:08:57.053Z,97986.63
2023-05-01T15:11:23.422Z,97982.31
2023-05-01T15:13:50.463Z,97985.06
2023-05-01T15:16:17.254Z,97987.94
2023-05-01T15:18:43.832Z,97977.97
2023-05-01T15:21:10.300Z,97980.94
2023-05-01T15:23:37.216Z,97975.34
2023-05-01T15:26:03.928Z,97975.47
2023-05-01T15:28:30.519Z,97972.66
2023-05-01T15:30:56.963Z,97973.94
2023-05-01T15:33:23.530Z,97977.13
2023-05-01T15:35:51.588Z,97968.41
2023-05-01T15:38:18.229Z,97971.13
2023-05-01T15:40:45.557Z,97970.97
2023-05-01T15:43:11.909Z,97966.31
2023-05-01T15:45:43.512Z,97961.06
2023-05-01T15:48:11.324Z,97958.91
2023-05-01T15:50:37.895Z,97955.19
2023-05-01T15:53:04.638Z,97956.06
2023-05-01T15:55:31.219Z,97953.53
2023-05-01T15:57:57.608Z,97955.47
2023-05-01T16:00:25.370Z,97956.75
2023-05-01T16:02:52.209Z,97954.16
2023-05-01T16:05:21.428Z,97955.66
2023-05-01T16:07:56.174Z,97953.25
2023-05-01T16:10:23.261Z,97953.63
2023-05-01T16:12:50.938Z,97950.38
2023-05-01T16:15:18.078Z,97950.25
2023-05-01T16:17:45.636Z,97947.25
2023-05-01T16:20:13.440Z,97947.94
2023-05-01T16:22:41.124Z,97950.72
2023-05-01T16:25:09.506Z,97948.34
2023-05-01T16:27:41.284Z,97946.25
2023-05-01T16:30:09.430Z,97949.97
2023-05-01T16:32:36.114Z,97944.53
2023-05-01T16:35:05.355Z,97947.25
2023-05-01T16:37:33.999Z,97941.53
2023-05-01T16:40:01.320Z,97946.56
2023-05-01T16:42:28.155Z,97947.25
2023-05-01T16:44:56.478Z,97946.25
2023-05-01T16:47:22.969Z,97951.63
2023-05-01T16:49:49.374Z,97947.28
2023-05-01T16:52:17.035Z,97939.09
2023-05-01T16:54:43.419Z,97939.84
2023-05-01T16:57:10.134Z,97938.84
2023-05-01T16:59:37.712Z,97933.09
2023-05-01T17:02:05.587Z,97934.66
2023-05-01T17:04:32.323Z,97937.63
2023-05-01T17:06:58.873Z,97936.59
2023-05-01T17:09:25.386Z,97939.22
2023-05-01T17:11:51.790Z,97935.91
2023-05-01T17:14:19.019Z,97942.56
2023-05-01T17:16:46.311Z,97937.88
2023-05-01T17:19:14.516Z,97938.34
2023-05-01T17:21:41.298Z,97940.63
2023-05-01T17:24:07.680Z,97938.44
2023-05-01T17:26:34.067Z,97942.91
2023-05-01T17:29:02.775Z,97940.81
2023-05-01T17:31:29.504Z,97936.81
2023-05-01T17:33:55.902Z,97948.28
2023-05-01T17:36:23.575Z,97945.81
2023-05-01T17:38:54.599Z,97949.91
2023-05-01T17:41:21.191Z,97943.75
2023-05-01T17:43:47.690Z,97943.13
2023-05-01T17:46:14.325Z,97942.50
2023-05-01T17:48:44.481Z,97954.00
2023-05-01T17:51:13.830Z,97941.25
2023-05-01T17:53:40.377Z,97949.81
2023-05-01T17:56:07.051Z,97949.09
2023-05-01T17:58:33.852Z,97943.66
2023-05-01T18:01:00.360Z,97938.66
2023-05-01T18:03:27.050Z,97942.72
2023-05-01T18:05:53.558Z,97940.59
2023-05-01T18:08:20.028Z,97941.75
2023-05-01T18:10:46.497Z,97946.59
2023-05-01T18:13:12.956Z,97949.91
2023-05-01T18:15:39.352Z,97943.38
2023-05-01T18:18:05.806Z,97950.00
2023-05-01T18:20:32.199Z,97955.56
2023-05-01T18:22:58.586Z,97954.09
2023-05-01T18:25:25.105Z,97958.50
2023-05-01T18:27:51.540Z,97957.41
2023-05-01T18:30:17.962Z,97957.41
2023-05-01T18:32:47.587Z,97955.97
2023-05-01T18:35:15.679Z,97956.00
2023-05-01T18:37:42.804Z,97955.06
2023-05-01T18:40:09.889Z,97966.28
2023-05-01T18:42:36.303Z,97964.69
2023-05-01T18:45:03.150Z,97960.47
2023-05-01T18:47:29.707Z,97960.44
2023-05-01T18:49:56.190Z,97970.41
2023-05-01T18:52:22.674Z,97964.22
2023-05-01T18:54:49.287Z,97969.03
2023-05-01T18:57:15.710Z,97977.09
2023-05-01T18:59:43.068Z,97970.19
2023-05-01T19:02:11.244Z,97974.25
2023-05-01T19:04:49.327Z,97972.81
2023-05-01T19:07:22.260Z,97968.41
2023-05-01T19:09:48.619Z,97972.81
2023-05-01T19:12:16.343Z,97976.88
2023-05-01T19:14:42.779Z,97976.16
2023-05-01T19:17:09.129Z,97969.94
2023-05-01T19:19:35.526Z,97972.19
2023-05-01T19:22:02.034Z,97983.53
2023-05-01T19:24:28.641Z,97973.63
2023-05-01T19:26:55.332Z,97977.63
2023-05-01T19:29:21.742Z,97974.06
2023-05-01T19:31:48.318Z,97974.44
2023-05-01T19:34:14.755Z,97981.94
2023-05-01T19:36:41.146Z,97984.13
2023-05-01T19:39:07.500Z,97976.84
2023-05-01T19:41:34.103Z,97983.06
2023-05-01T19:44:00.879Z,97969.47
2023-05-01T19:46:27.271Z,97977.13
2023-05-01T19:48:53.683Z,97979.38
2023-05-01T19:51:20.086Z,97975.75
2023-05-01T19:53:47.022Z,97979.78
2023-05-01T19:56:13.429Z,97981.25
2023-05-01T19:58:39.926Z,97979.06
2023-05-01T20:01:09.113Z,97987.47
2023-05-01T20:03:35.628Z,97980.13
2023-05-01T20:06:02.085Z,97972.84
2023-05-01T20:08:28.552Z,97984.94
2023-05-01T20:10:54.915Z,97979.44
2023-05-01T20:13:21.277Z,97974.31
2023-05-01T20:15:47.648Z,97979.09
2023-05-01T20:18:14.144Z,97976.50
2023-05-01T20:20:40.699Z,97976.19
2023-05-01T20:23:10.900Z,97976.19
2023-05-01T20:25:37.496Z,97987.16
2023-05-01T20:28:04.542Z,97976.19
2023-05-01T20:30:30.909Z,97991.22
2023-05-01T20:32:57.335Z,97985.38
2023-05-01T20:35:23.917Z,97988.28
2023-05-01T20:37:50.453Z,97986.44
2023-05-01T20:40:18.664Z,97990.09
2023-05-01T20:42:45.116Z,97997.78
2023-05-01T20:45:11.683Z,98005.81
2023-05-01T20:47:38.103Z,98002.16
2023-05-01T20:50:04.823Z,98007.66
2023-05-01T20:52:31.224Z,98010.94
2023-05-01T20:54:57.661Z,98013.88
2023-05-01T20:57:24.095Z,98021.91
2023-05-01T20:59:50.874Z,98025.19
2023-05-01T21:02:17.472Z,98033.25
2023-05-01T21:04:44.178Z,98027.78
2023-05-01T21:07:10.808Z,98016.75
2023-05-01T21:09:37.393Z,98020.78
2023-05-01T21:12:06.037Z,98023.00
2023-05-01T21:14:32.479Z,98027.72
2023-05-01T21:16:58.902Z,98030.28
2023-05-01T21:19:25.328Z,98033.59
2023-05-01T21:21:55.093Z,98031.78
2023-05-01T21:24:25.714Z,98034.34
2023-05-01T21:26:54.972Z,98041.63
2023-05-01T21:29:21.550Z,98042.38
2023-05-01T21:31:49.039Z,98053.69
2023-05-01T21:34:17.248Z,98053.34
2023-05-01T21:36:49.243Z,98048.22
2023-05-01T21:39:15.780Z,98057.34
2023-05-01T21:41:42.154Z,98047.84
2023-05-01T21:44:09.523Z,98061.00
2023-05-01T21:46:37.070Z,98066.50
2023-05-01T21:49:03.636Z,98066.84
2023-05-01T21:51:32.131Z,98076.34
2023-05-01T21:54:02.242Z,98081.44
2023-05-01T21:56:28.698Z,98073.34
2023-05-01T21:59:05.523Z,98080.34
2023-05-01T22:01:32.053Z,98074.09
2023-05-01T22:03:58.583Z,98074.09
2023-05-01T22:06:25.470Z,98082.84
2023-05-01T22:08:52.048Z,98082.44
2023-05-01T22:11:19.569Z,98072.97
2023-05-01T22:13:46.159Z,98077.31
2023-05-01T22:16:13.797Z,98075.50
2023-05-01T22:18:40.697Z,98078.75
2023-05-01T22:21:07.067Z,98084.22
2023-05-01T22:23:33.633Z,98083.13
2023-05-01T22:26:00.296Z,98087.16
2023-05-01T22:28:26.956Z,98084.22
2023-05-01T22:30:53.483Z,98092.56
2023-05-01T22:33:20.376Z,98091.88
2023-05-01T22:35:46.708Z,98087.44
2023-05-01T22:38:13.074Z,98089.69
2023-05-01T22:40:39.428Z,98089.66
2023-05-01T22:43:06.136Z,98093.97
2023-05-01T22:45:32.557Z,98097.22
2023-05-01T22:47:58.948Z,98100.16
2023-05-01T22:50:25.391Z,98101.25
2023-05-01T22:52:52.297Z,98102.34
2023-05-01T22:55:18.686Z,98101.22
2023-05-01T22:57:45.605Z,98093.56
2023-05-01T23:00:13.001Z,98099.00
2023-05-01T23:02:39.499Z,98095.34
2023-05-01T23:05:07.170Z,98108.84
2023-05-01T23:07:33.539Z,98103.00
2023-05-01T23:10:00.454Z,98103.34
2023-05-01T23:12:27.746Z,98103.34
2023-05-01T23:14:55.084Z,98102.59
2023-05-01T23:17:21.861Z,98114.97
2023-05-01T23:19:48.360Z,98104.78
2023-05-01T23:22:14.804Z,98101.13
2023-05-01T23:24:48.406Z,98104.78
2023-05-01T23:27:19.168Z,98102.22
2023-05-01T23:29:54.506Z,98099.28
2023-05-01T23:32:26.760Z,98108.00
2023-05-01T23:34:54.979Z,98117.13
2023-05-01T23:37:22.013Z,98123.31
2023-05-01T23:39:48.563Z,98123.66
2023-05-01T23:42:15.055Z,98128.03
2023-05-01T23:44:41.456Z,98132.06
2023-05-01T23:47:07.930Z,98131.31
2023-05-01T23:49:34.419Z,98131.69
2023-05-01T23:52:00.804Z,98137.84
2023-05-01T23:54:27.327Z,98136.72
2023-05-01T23:56:54.401Z,98136.31
2023-05-01T23:59:20.794Z,98130.09
